Time;durP1;ratioP1;P1;durP2;ratioP2;P2;SDS_P1;SDS_P2;PMS_P1;PMS_P2;Temp;Humidity;BMP_temperature;BMP_pressure;BME280_temperature;BME280_humidity;BME280_pressure;Samples;Min_cycle;Max_cycle;Signal;HPM_P1;HPM_P2
2021/01/23 00:02:13;;;;;;;24.00;12.10;;;;;;;0.32;91.30;98753.28;5099400;28;20026;-80
2021/01/23 00:04:40;;;;;;;21.48;11.93;;;;;;;0.28;91.53;98755.84;5097936;28;20111;-81
2021/01/23 00:07:05;;;;;;;21.25;11.45;;;;;;;0.28;91.50;98755.84;5098038;28;20024;-81
2021/01/23 00:09:30;;;;;;;23.25;11.77;;;;;;;0.17;92.05;98753.38;5097471;28;20043;-81
2021/01/23 00:11:56;;;;;;;16.92;9.80;;;;;;;0.22;91.95;98746.53;5097911;28;20111;-81
2021/01/23 00:14:21;;;;;;;21.52;10.40;;;;;;;0.26;91.66;98742.28;5099386;28;20058;-82
2021/01/23 00:16:47;;;;;;;25.38;11.27;;;;;;;0.28;91.50;98740.53;5099374;28;20364;-81
2021/01/23 00:19:12;;;;;;;25.33;11.98;;;;;;;0.28;91.54;98736.31;5098040;28;20479;-80
2021/01/23 00:21:37;;;;;;;26.55;12.48;;;;;;;0.25;91.44;98736.34;5098216;28;20024;-81
2021/01/23 00:24:04;;;;;;;20.92;11.73;;;;;;;0.13;91.52;98732.16;5097876;28;20028;-81
2021/01/23 00:26:29;;;;;;;22.05;9.38;;;;;;;0.16;92.20;98729.56;5099619;28;20100;-81
2021/01/23 00:28:54;;;;;;;25.90;12.15;;;;;;;0.29;91.73;98727.78;5097694;28;20060;-81
2021/01/23 00:31:20;;;;;;;22.65;11.93;;;;;;;0.20;92.02;98733.78;5097971;28;20024;-81
2021/01/23 00:33:45;;;;;;;20.10;12.70;;;;;;;0.12;91.91;98732.97;5097519;28;20391;-81
2021/01/23 00:36:10;;;;;;;25.27;12.80;;;;;;;0.05;92.20;98728.78;5096891;28;20432;-81
2021/01/23 00:38:36;;;;;;;25.13;12.35;;;;;;;0.06;92.20;98735.56;5097917;28;20020;-81
2021/01/23 00:41:01;;;;;;;21.23;11.95;;;;;;;0.02;92.49;98738.16;5098166;28;20028;-81
2021/01/23 00:43:26;;;;;;;22.40;12.73;;;;;;;0.08;92.12;98736.41;5097309;28;20030;-82
2021/01/23 00:45:51;;;;;;;22.65;12.15;;;;;;;0.01;92.80;98734.75;5097198;28;20491;-81
2021/01/23 00:48:17;;;;;;;26.13;12.90;;;;;;;0.09;92.47;98740.66;5097022;28;20110;-80
2021/01/23 00:50:43;;;;;;;25.67;12.52;;;;;;;0.04;92.43;98742.38;5098484;28;20020;-80
2021/01/23 00:53:08;;;;;;;33.80;13.63;;;;;;;-0.08;92.43;98745.00;5097442;28;20023;-80
2021/01/23 00:55:33;;;;;;;24.85;12.90;;;;;;;-0.06;93.16;98748.41;5099152;28;20024;-81
2021/01/23 00:57:59;;;;;;;26.98;12.43;;;;;;;-0.12;92.92;98741.63;5097335;28;20055;-81
2021/01/23 01:00:24;;;;;;;26.85;13.90;;;;;;;-0.01;92.61;98750.03;5098820;28;20024;-81
2021/01/23 01:02:49;;;;;;;28.05;13.77;;;;;;;0.02;92.63;98739.00;5097439;28;20025;-81
2021/01/23 01:05:15;;;;;;;24.75;13.15;;;;;;;-0.08;92.60;98739.91;5098856;28;20032;-81
2021/01/23 01:07:41;;;;;;;21.95;12.43;;;;;;;0.18;92.86;98742.31;5098808;28;20024;-81
2021/01/23 01:10:07;;;;;;;26.63;13.65;;;;;;;0.02;92.51;98745.78;5099107;28;20030;-81
2021/01/23 01:12:32;;;;;;;24.65;14.10;;;;;;;-0.18;93.10;98741.66;5097658;28;20501;-81
2021/01/23 01:14:58;;;;;;;21.38;14.02;;;;;;;-0.06;93.06;98745.84;5097064;28;20024;-80
2021/01/23 01:17:23;;;;;;;26.70;13.40;;;;;;;-0.08;92.91;98737.34;5098921;28;20113;-80
2021/01/23 01:19:49;;;;;;;32.20;14.63;;;;;;;0.05;92.76;98743.22;5097173;28;20032;-80
2021/01/23 01:22:14;;;;;;;24.73;14.20;;;;;;;-0.01;92.77;98736.47;5098170;28;20042;-80
2021/01/23 01:24:39;;;;;;;25.20;13.80;;;;;;;0.05;93.50;98733.03;5098478;28;20028;-80
2021/01/23 01:27:04;;;;;;;30.65;14.98;;;;;;;0.01;93.30;98727.13;5097072;28;20053;-80
2021/01/23 01:29:30;;;;;;;26.20;14.80;;;;;;;-0.04;93.50;98729.66;5097804;28;20028;-80
2021/01/23 01:31:55;;;;;;;27.17;14.65;;;;;;;-0.14;93.58;98729.75;5097527;28;20019;-80
2021/01/23 01:34:20;;;;;;;30.33;16.00;;;;;;;-0.19;93.18;98732.28;5098224;28;20476;-81
2021/01/23 01:36:45;;;;;;;30.63;15.20;;;;;;;-0.20;93.61;98729.78;5097293;28;20030;-81
2021/01/23 01:39:11;;;;;;;27.05;13.95;;;;;;;-0.10;93.10;98733.97;5097248;28;20020;-80
2021/01/23 01:41:37;;;;;;;30.30;14.57;;;;;;;-0.14;93.15;98738.22;5097123;28;20032;-81
2021/01/23 01:44:04;;;;;;;28.40;14.48;;;;;;;0.04;92.97;98742.38;5097730;28;20073;-81
2021/01/23 01:46:29;;;;;;;29.40;15.48;;;;;;;0.03;92.84;98745.78;5098620;28;20103;-81
2021/01/23 01:48:56;;;;;;;24.77;13.88;;;;;;;0.01;93.21;98742.41;5098160;28;20528;-81
2021/01/23 01:51:21;;;;;;;27.98;13.75;;;;;;;0.10;92.87;98739.81;5098518;28;20024;-81
2021/01/23 01:53:46;;;;;;;27.35;14.45;;;;;;;0.05;92.87;98743.22;5096926;28;20077;-81
2021/01/23 01:56:11;;;;;;;25.10;15.18;;;;;;;0.03;92.93;98740.69;5097091;28;20032;-81
2021/01/23 01:58:37;;;;;;;22.92;14.65;;;;;;;0.04;93.25;98739.84;5098473;28;20075;-81
2021/01/23 02:01:02;;;;;;;29.35;15.02;;;;;;;0.04;93.08;98750.03;5098181;28;20106;-80
2021/01/23 02:04:05;;;;;;;28.08;15.95;;;;;;;0.08;92.86;98749.16;5097652;28;20488;-80
2021/01/23 02:07:16;;;;;;;27.38;15.65;;;;;;;0.04;92.88;98739.84;5099564;28;20036;-80
2021/01/23 02:10:05;;;;;;;32.00;16.20;;;;;;;0.04;92.95;98744.94;5096452;28;20055;-81
2021/01/23 02:12:42;;;;;;;27.90;14.68;;;;;;;0.05;92.94;98744.06;5101554;28;20031;-80
2021/01/23 02:15:20;;;;;;;33.75;17.55;;;;;;;0.06;92.92;98743.22;5107478;28;20050;-80
2021/01/23 02:17:50;;;;;;;26.17;15.80;;;;;;;0.07;92.93;98741.53;5107624;28;20020;-80
2021/01/23 02:20:34;;;;;;;26.48;15.25;;;;;;;-0.02;93.14;98747.53;5108890;28;20051;-80
2021/01/23 02:23:18;;;;;;;35.10;17.53;;;;;;;0.06;93.09;98743.22;5103082;28;20117;-80
2021/01/23 02:26:11;;;;;;;29.98;16.08;;;;;;;0.06;93.32;98744.91;5095361;28;20410;-80
2021/01/23 02:29:00;;;;;;;23.80;15.02;;;;;;;0.04;93.01;98741.56;5067542;28;20028;-81
2021/01/23 02:31:28;;;;;;;30.13;17.55;;;;;;;0.03;93.08;98743.22;5096957;28;20028;-80
2021/01/23 02:33:59;;;;;;;29.63;15.88;;;;;;;0.07;93.23;98749.19;5096789;28;20032;-80
2021/01/23 02:36:24;;;;;;;34.00;17.70;;;;;;;0.07;93.23;98734.72;5097347;28;20042;-80
2021/01/23 02:38:51;;;;;;;33.25;17.08;;;;;;;0.05;93.36;98738.97;5097151;28;20032;-81
2021/01/23 02:41:16;;;;;;;33.78;17.17;;;;;;;0.08;92.97;98744.06;5097290;28;20076;-80
2021/01/23 02:43:43;;;;;;;32.28;16.77;;;;;;;0.08;93.53;98744.06;5095321;28;20130;-80
2021/01/23 02:46:14;;;;;;;30.48;16.23;;;;;;;0.04;93.52;98754.28;5095658;28;20055;-81
2021/01/23 02:48:41;;;;;;;35.60;17.27;;;;;;;0.05;93.62;98756.81;5095901;28;20027;-81
2021/01/23 02:51:17;;;;;;;33.83;17.38;;;;;;;0.12;93.15;98761.00;5095016;28;20027;-80
2021/01/23 02:53:45;;;;;;;27.67;15.27;;;;;;;0.22;92.96;98762.69;5096666;28;20024;-81
2021/01/23 02:56:17;;;;;;;30.98;15.52;;;;;;;0.23;93.12;98766.91;5095761;28;20507;-81
2021/01/23 02:58:45;;;;;;;32.15;16.45;;;;;;;0.17;93.55;98761.00;5095279;28;20026;-81
2021/01/23 03:01:11;;;;;;;29.58;16.58;;;;;;;0.21;93.23;98758.41;5095335;28;20038;-81
2021/01/23 03:03:38;;;;;;;30.80;16.38;;;;;;;0.23;93.15;98760.97;5095747;28;20024;-80
2021/01/23 03:06:04;;;;;;;32.45;15.40;;;;;;;0.32;92.78;98762.63;5095812;28;20375;-80
2021/01/23 03:08:30;;;;;;;34.58;16.42;;;;;;;0.27;93.02;98759.25;5094949;28;20115;-80
2021/01/23 03:10:56;;;;;;;30.00;16.30;;;;;;;0.26;93.12;98762.66;5095175;28;20024;-81
2021/01/23 03:13:21;;;;;;;31.10;17.75;;;;;;;0.18;93.41;98757.59;5095087;28;20021;-80
2021/01/23 03:15:47;;;;;;;35.20;16.50;;;;;;;0.15;93.49;98752.50;5096556;28;20082;-80
2021/01/23 03:18:12;;;;;;;34.22;16.73;;;;;;;0.17;93.90;98759.31;5095233;28;20036;-80
2021/01/23 03:20:38;;;;;;;30.85;17.20;;;;;;;0.18;93.61;98758.44;5094958;28;20023;-80
2021/01/23 03:23:03;;;;;;;38.67;18.75;;;;;;;0.08;93.30;98759.34;5098118;28;20035;-81
2021/01/23 03:25:29;;;;;;;31.67;18.40;;;;;;;0.01;93.85;98761.94;5100078;28;20024;-80
2021/01/23 03:27:55;;;;;;;31.27;17.70;;;;;;;0.05;94.14;98756.81;5098961;28;20028;-80
2021/01/23 03:30:21;;;;;;;29.63;17.58;;;;;;;0.13;93.75;98757.63;5100753;28;20388;-81
2021/01/23 03:32:50;;;;;;;29.23;17.63;;;;;;;0.14;93.28;98753.38;5098696;28;20100;-80
2021/01/23 03:35:20;;;;;;;35.80;18.48;;;;;;;0.08;93.88;98759.34;5100258;28;20103;-80
2021/01/23 03:37:45;;;;;;;27.25;17.13;;;;;;;0.02;93.87;98758.53;5099803;28;20016;-81
2021/01/23 03:40:11;;;;;;;31.88;17.40;;;;;;;0.18;94.12;98768.63;5098662;28;20396;-80
2021/01/23 03:42:37;;;;;;;36.20;18.77;;;;;;;0.17;94.11;98759.31;5100248;28;20032;-80
2021/01/23 03:45:04;;;;;;;36.97;17.60;;;;;;;0.04;94.09;98764.50;5099961;28;20479;-81
2021/01/23 03:47:29;;;;;;;36.17;19.10;;;;;;;0.14;94.08;98761.88;5099845;28;20035;-81
2021/01/23 03:49:55;;;;;;;36.80;18.70;;;;;;;0.18;93.49;98765.25;5097952;28;20541;-80
2021/01/23 03:52:20;;;;;;;37.30;18.83;;;;;;;0.18;93.76;98766.09;5098042;28;20020;-80
2021/01/23 03:54:45;;;;;;;38.75;19.70;;;;;;;0.18;93.67;98760.97;5098024;28;20016;-81
2021/01/23 03:57:10;;;;;;;47.17;19.35;;;;;;;0.14;93.89;98758.47;5098169;28;20040;-81
2021/01/23 03:59:36;;;;;;;35.08;18.90;;;;;;;0.15;93.74;98750.81;5099601;28;20032;-81
2021/01/23 04:02:03;;;;;;;35.70;19.50;;;;;;;0.14;93.64;98761.03;5097658;28;20157;-80
2021/01/23 04:04:28;;;;;;;33.40;18.98;;;;;;;0.10;94.40;98752.56;5099630;28;20028;-80
2021/01/23 04:06:54;;;;;;;32.88;17.98;;;;;;;0.12;94.30;98748.28;5097756;28;20016;-80
2021/01/23 04:09:19;;;;;;;33.15;19.38;;;;;;;0.09;94.22;98750.00;5098422;28;20020;-80
2021/01/23 04:11:45;;;;;;;37.20;19.77;;;;;;;0.06;94.02;98755.94;5098039;28;20027;-80
2021/01/23 04:14:10;;;;;;;39.13;20.13;;;;;;;0.08;94.39;98754.25;5097683;28;20027;-81
2021/01/23 04:16:36;;;;;;;38.20;19.80;;;;;;;-0.02;93.87;98743.25;5097428;28;20110;-81
2021/01/23 04:19:02;;;;;;;39.90;19.90;;;;;;;-0.06;93.92;98745.84;5097326;28;20023;-80
2021/01/23 04:21:27;;;;;;;38.25;19.55;;;;;;;0.04;94.40;98741.56;5097236;28;20081;-80
2021/01/23 04:23:53;;;;;;;37.45;20.00;;;;;;;0.01;93.81;98736.47;5097486;28;20028;-80
2021/01/23 04:26:18;;;;;;;36.88;19.35;;;;;;;-0.11;94.19;98729.72;5099101;28;20072;-80
2021/01/23 04:28:43;;;;;;;38.80;20.77;;;;;;;-0.16;94.36;98739.09;5097106;28;20111;-80
2021/01/23 04:31:09;;;;;;;39.13;20.02;;;;;;;-0.21;94.31;98740.81;5097544;28;20062;-80
2021/01/23 04:33:34;;;;;;;40.65;20.65;;;;;;;-0.23;94.88;98740.81;5096193;28;20020;-81
2021/01/23 04:36:00;;;;;;;39.25;19.95;;;;;;;-0.22;94.57;98746.75;5097167;28;20031;-81
2021/01/23 04:38:26;;;;;;;42.67;21.00;;;;;;;-0.13;95.23;98739.91;5096568;28;20391;-81
2021/01/23 04:40:57;;;;;;;35.42;19.80;;;;;;;-0.21;94.87;98735.72;5096779;28;20088;-81
2021/01/23 04:43:23;;;;;;;39.55;20.05;;;;;;;-0.10;95.15;98744.16;5096762;28;20070;-80
2021/01/23 04:45:49;;;;;;;38.75;20.48;;;;;;;-0.06;94.67;98741.59;5098582;28;20490;-81
2021/01/23 04:48:18;;;;;;;32.83;19.58;;;;;;;-0.19;94.03;98739.09;5097191;28;20119;-81
2021/01/23 04:50:47;;;;;;;36.50;19.25;;;;;;;-0.31;94.26;98745.94;5096728;28;20028;-80
2021/01/23 04:53:13;;;;;;;36.47;19.88;;;;;;;-0.44;94.94;98759.56;5096696;28;20045;-81
2021/01/23 04:55:38;;;;;;;39.20;19.60;;;;;;;-0.57;94.61;98751.13;5096838;28;20020;-80
2021/01/23 04:58:04;;;;;;;40.67;20.30;;;;;;;-0.62;94.64;98755.34;5098575;28;20028;-81
2021/01/23 05:00:29;;;;;;;33.90;20.90;;;;;;;-0.66;94.87;98748.59;5098025;28;20039;-81
2021/01/23 05:03:00;;;;;;;31.75;20.05;;;;;;;-0.64;95.62;98752.00;5096109;28;20499;-80
2021/01/23 05:05:26;;;;;;;41.83;20.60;;;;;;;-0.67;95.28;98757.09;5096961;28;20062;-80
2021/01/23 05:07:51;;;;;;;35.47;19.88;;;;;;;-0.62;95.30;98754.53;5096387;28;20020;-80
2021/01/23 05:10:24;;;;;;;40.65;21.35;;;;;;;-0.65;95.66;98754.53;5098348;28;20027;-80
2021/01/23 05:12:58;;;;;;;50.45;23.65;;;;;;;-0.67;95.98;98744.38;5096614;28;20031;-80
2021/01/23 05:15:28;;;;;;;49.08;21.10;;;;;;;-0.50;95.99;98751.94;5097878;28;20105;-81
2021/01/23 05:18:04;;;;;;;40.40;21.50;;;;;;;-0.51;95.83;98740.06;5097783;28;20028;-81
2021/01/23 05:20:33;;;;;;;46.45;21.92;;;;;;;-0.43;95.31;98743.44;5096999;28;20384;-80
2021/01/23 05:23:07;;;;;;;39.88;22.08;;;;;;;-0.41;95.63;98736.63;5096121;28;20023;-80
2021/01/23 05:25:33;;;;;;;43.25;21.02;;;;;;;-0.22;95.91;98729.75;5095640;28;20411;-80
2021/01/23 05:28:00;;;;;;;41.58;22.75;;;;;;;-0.12;95.32;98726.34;5095912;28;20020;-80
2021/01/23 05:30:38;;;;;;;47.13;22.77;;;;;;;-0.13;95.28;98729.72;5095778;28;20046;-80
2021/01/23 05:33:06;;;;;;;47.30;22.75;;;;;;;-0.01;94.71;98731.38;5095611;28;20069;-80
2021/01/23 05:35:32;;;;;;;48.50;23.63;;;;;;;0.04;94.84;98731.34;5096893;28;20058;-80
2021/01/23 05:37:57;;;;;;;43.17;24.23;;;;;;;0.06;94.59;98730.47;5096985;28;20028;-80
2021/01/23 05:40:30;;;;;;;39.15;21.92;;;;;;;0.07;94.50;98741.53;5097612;28;20059;-80
2021/01/23 05:42:55;;;;;;;41.63;22.70;;;;;;;0.04;94.43;98729.66;5095529;28;20027;-80
2021/01/23 05:45:21;;;;;;;46.47;22.98;;;;;;;0.06;94.93;98725.38;5096142;28;20020;-80
2021/01/23 05:47:46;;;;;;;44.28;23.25;;;;;;;-0.03;94.47;98725.44;5095616;28;20024;-80
2021/01/23 05:50:11;;;;;;;44.63;22.00;;;;;;;-0.02;94.49;98739.88;5095583;28;20070;-81
2021/01/23 05:52:37;;;;;;;34.78;21.83;;;;;;;0.04;93.72;98732.19;5097140;28;20037;-80
2021/01/23 05:55:03;;;;;;;43.33;22.52;;;;;;;0.01;93.81;98737.31;5096655;28;20389;-80
2021/01/23 05:57:29;;;;;;;40.05;22.13;;;;;;;-0.04;94.45;98733.94;5095169;28;20487;-80
2021/01/23 05:59:54;;;;;;;43.03;22.90;;;;;;;-0.12;94.66;98735.69;5095417;28;20028;-81
2021/01/23 06:02:21;;;;;;;40.85;22.38;;;;;;;-0.20;94.85;98734.88;5095094;28;20034;-80
2021/01/23 06:04:48;;;;;;;39.60;21.75;;;;;;;-0.27;94.29;98722.16;5096432;28;20510;-80
2021/01/23 06:07:44;;;;;;;37.10;21.05;;;;;;;-0.13;95.00;98731.44;5095386;28;20480;-80
2021/01/23 06:10:21;;;;;;;41.75;21.10;;;;;;;-0.13;94.75;98729.72;5096483;28;20449;-80
2021/01/23 06:12:47;;;;;;;39.95;21.08;;;;;;;-0.19;94.75;98728.91;5094779;28;20116;-80
2021/01/23 06:15:31;;;;;;;35.60;21.73;;;;;;;-0.36;94.16;98745.13;5094390;28;20055;-80
2021/01/23 06:17:57;;;;;;;37.72;19.73;;;;;;;-0.42;94.34;98744.28;5095076;28;20442;-80
2021/01/23 06:20:40;;;;;;;37.30;22.48;;;;;;;-0.49;94.42;98744.31;5095379;28;20020;-80
2021/01/23 06:23:10;;;;;;;35.80;18.20;;;;;;;-0.37;95.06;98738.34;5095167;28;20054;-80
2021/01/23 06:25:51;;;;;;;39.67;21.52;;;;;;;-0.42;94.48;98745.13;5094638;28;20410;-80
2021/01/23 06:28:22;;;;;;;44.58;20.98;;;;;;;-0.62;95.08;98747.72;5096005;28;20395;-80
2021/01/23 06:30:51;;;;;;;38.05;22.88;;;;;;;-0.75;95.09;98748.59;5095442;28;20487;-80
2021/01/23 06:33:22;;;;;;;38.15;21.25;;;;;;;-0.75;95.02;98752.00;5094955;28;20063;-80
2021/01/23 06:36:05;;;;;;;42.33;21.23;;;;;;;-0.72;95.42;98738.41;5096658;28;20458;-80
2021/01/23 06:38:32;;;;;;;40.72;21.20;;;;;;;-0.63;95.44;98748.59;5096524;28;20111;-80
2021/01/23 06:41:27;;;;;;;43.42;22.08;;;;;;;-0.56;95.07;98755.34;5096126;28;20365;-80
2021/01/23 06:44:17;;;;;;;40.15;22.83;;;;;;;-0.64;95.82;98759.63;5088290;28;20036;-80
2021/01/23 06:46:54;;;;;;;41.97;18.95;;;;;;;-0.54;95.64;98761.28;5095278;28;20031;-80
2021/01/23 06:49:20;;;;;;;40.70;21.42;;;;;;;-0.56;94.94;98764.69;5096422;28;20059;-80
2021/01/23 06:51:45;;;;;;;43.78;21.27;;;;;;;-0.58;94.95;98763.88;5096524;28;20024;-80
2021/01/23 06:54:12;;;;;;;45.70;20.92;;;;;;;-0.72;95.36;98768.97;5095440;28;20051;-80
2021/01/23 06:56:41;;;;;;;40.78;19.83;;;;;;;-0.75;95.52;98771.53;5096293;28;20073;-81
2021/01/23 06:59:06;;;;;;;40.10;22.17;;;;;;;-0.87;95.42;98769.84;5098994;28;20024;-81
2021/01/23 07:01:32;;;;;;;38.78;20.85;;;;;;;-0.83;95.27;98768.13;5099039;28;20430;-80
2021/01/23 07:03:57;;;;;;;38.38;20.80;;;;;;;-0.83;95.25;98768.13;5100949;28;20020;-80
2021/01/23 07:06:29;;;;;;;45.22;22.73;;;;;;;-0.90;95.54;98767.28;5100882;28;20044;-80
2021/01/23 07:08:54;;;;;;;36.25;19.95;;;;;;;-0.91;95.42;98764.75;5098925;28;20073;-81
2021/01/23 07:11:22;;;;;;;39.47;19.40;;;;;;;-0.94;95.33;98766.44;5099277;28;20035;-81
2021/01/23 07:14:06;;;;;;;28.27;12.40;;;;;;;-0.83;95.64;98766.47;5100320;28;20024;-80
2021/01/23 07:16:33;;;;;;;36.25;20.63;;;;;;;-0.87;95.50;98764.75;5098957;28;20376;-83
2021/01/23 07:19:01;;;;;;;40.22;21.40;;;;;;;-0.91;95.56;98765.59;5099526;28;20119;-82
2021/01/23 07:21:29;;;;;;;38.53;20.23;;;;;;;-0.96;96.10;98769.84;5099716;28;20059;-82
2021/01/23 07:23:55;;;;;;;35.67;19.15;;;;;;;-0.98;95.60;98764.78;5098957;28;20032;-81
2021/01/23 07:26:22;;;;;;;38.38;20.35;;;;;;;-1.09;95.81;98758.00;5100006;28;20023;-82
2021/01/23 07:28:49;;;;;;;43.88;22.45;;;;;;;-1.16;96.03;98752.06;5098696;28;20024;-81
2021/01/23 07:31:19;;;;;;;42.95;21.15;;;;;;;-1.18;95.74;98738.47;5098965;28;20024;-82
2021/01/23 07:33:44;;;;;;;46.10;22.08;;;;;;;-1.14;95.81;98749.50;5099322;28;20096;-81
2021/01/23 07:36:09;;;;;;;40.72;21.55;;;;;;;-1.15;96.29;98748.66;5098791;28;20034;-81
2021/01/23 07:38:35;;;;;;;39.28;20.60;;;;;;;-1.13;96.14;98746.13;5099628;28;20081;-81
2021/01/23 07:41:00;;;;;;;41.28;20.77;;;;;;;-1.19;96.02;98746.97;5098299;28;20020;-80
2021/01/23 07:43:26;;;;;;;44.22;21.67;;;;;;;-1.18;96.21;98746.97;5098434;28;20024;-81
2021/01/23 07:45:54;;;;;;;38.80;20.73;;;;;;;-1.12;96.10;98743.56;5100316;28;20478;-81
2021/01/23 07:48:19;;;;;;;41.78;21.33;;;;;;;-1.16;96.21;98740.19;5102972;28;20028;-80
2021/01/23 07:50:48;;;;;;;37.50;20.17;;;;;;;-1.13;96.33;98736.78;5102044;28;20522;-80
2021/01/23 07:53:21;;;;;;;39.20;21.67;;;;;;;-1.08;96.22;98740.16;5103476;28;20016;-81
2021/01/23 07:55:52;;;;;;;45.13;21.67;;;;;;;-1.07;96.36;98731.69;5099263;28;20050;-81
2021/01/23 07:58:18;;;;;;;38.67;20.73;;;;;;;-1.08;95.81;98732.53;5097499;28;20031;-81
2021/01/23 08:00:44;;;;;;;49.22;22.48;;;;;;;-1.04;95.58;98730.84;5097046;28;20016;-81
2021/01/23 08:03:10;;;;;;;43.17;21.27;;;;;;;-1.02;95.87;98729.97;5098263;28;20073;-81
2021/01/23 08:05:50;;;;;;;43.80;20.98;;;;;;;-0.99;96.04;98721.50;5098111;28;20020;-81
2021/01/23 08:08:31;;;;;;;40.97;22.50;;;;;;;-0.93;95.40;98714.69;5095834;28;20141;-80
2021/01/23 08:11:01;;;;;;;48.58;21.92;;;;;;;-0.93;95.55;98708.78;5096402;28;20052;-81
2021/01/23 08:13:28;;;;;;;45.00;22.45;;;;;;;-0.89;95.30;98702.84;5098109;28;20026;-80
2021/01/23 08:16:14;;;;;;;45.60;22.80;;;;;;;-0.85;95.11;98696.88;5097495;28;20042;-80
2021/01/23 08:18:39;;;;;;;39.85;20.27;;;;;;;-0.79;94.84;98694.31;5097818;28;20024;-80
2021/01/23 08:21:14;;;;;;;43.78;22.83;;;;;;;-0.76;94.93;98691.78;5096918;28;20073;-81
2021/01/23 08:23:39;;;;;;;42.67;21.35;;;;;;;-0.69;94.92;98700.22;5095999;28;20024;-80
2021/01/23 08:26:05;;;;;;;33.83;20.13;;;;;;;-0.61;94.60;98697.69;5096684;28;20077;-80
2021/01/23 08:28:40;;;;;;;41.50;21.98;;;;;;;-0.47;94.27;98693.38;5096899;28;20023;-80
2021/01/23 08:31:17;;;;;;;39.50;21.77;;;;;;;-0.54;93.84;98687.44;5097366;28;20024;-80
2021/01/23 08:33:43;;;;;;;38.42;21.65;;;;;;;-0.53;93.93;98696.78;5096418;28;20028;-80
2021/01/23 08:36:09;;;;;;;36.47;20.45;;;;;;;-0.52;94.30;98690.84;5097943;28;20059;-81
2021/01/23 08:38:35;;;;;;;41.53;21.55;;;;;;;-0.54;94.06;98692.53;5096221;28;20119;-81
2021/01/23 08:41:01;;;;;;;44.78;22.35;;;;;;;-0.54;94.24;98694.25;5098045;28;20070;-80
2021/01/23 08:43:28;;;;;;;43.67;21.48;;;;;;;-0.51;94.18;98686.59;5095795;28;20460;-80
2021/01/23 08:45:53;;;;;;;40.28;20.80;;;;;;;-0.47;94.39;98691.66;5097536;28;20020;-80
2021/01/23 08:48:18;;;;;;;38.63;22.52;;;;;;;-0.38;93.98;98697.56;5095883;28;20438;-81
2021/01/23 08:50:44;;;;;;;40.75;21.20;;;;;;;-0.35;93.76;98688.22;5096117;28;20020;-80
2021/01/23 08:53:09;;;;;;;42.38;22.40;;;;;;;-0.28;93.79;98696.66;5097529;28;20470;-80
2021/01/23 08:55:34;;;;;;;43.03;23.23;;;;;;;-0.20;92.81;98696.66;5095957;28;20020;-80
2021/01/23 08:57:59;;;;;;;38.63;20.83;;;;;;;-0.18;93.04;98705.97;5097965;28;20063;-80
2021/01/23 09:00:25;;;;;;;33.80;20.30;;;;;;;-0.10;92.65;98711.88;5095792;28;20119;-81
2021/01/23 09:02:50;;;;;;;40.15;20.10;;;;;;;-0.13;92.50;98711.03;5096037;28;20137;-81
2021/01/23 09:05:15;;;;;;;42.75;21.95;;;;;;;-0.08;92.60;98717.81;5097561;28;20058;-81
2021/01/23 09:07:40;;;;;;;50.47;24.50;;;;;;;0.05;92.12;98727.94;5095744;28;20483;-81
2021/01/23 09:10:10;;;;;;;39.83;22.58;;;;;;;0.09;91.44;98740.66;5097782;28;20106;-81
2021/01/23 09:12:36;;;;;;;46.90;23.52;;;;;;;0.14;91.66;98727.88;5097621;28;20074;-81
2021/01/23 09:15:02;;;;;;;41.70;21.80;;;;;;;0.12;90.88;98722.78;5095527;28;20020;-81
2021/01/23 09:17:28;;;;;;;42.50;21.60;;;;;;;0.18;90.85;98722.75;5095732;28;20073;-81
2021/01/23 09:19:53;;;;;;;41.25;21.60;;;;;;;0.22;91.05;98718.50;5097344;28;20036;-81
2021/01/23 09:22:18;;;;;;;36.65;21.60;;;;;;;0.42;90.65;98716.66;5095744;28;20102;-81
2021/01/23 09:24:43;;;;;;;35.75;21.77;;;;;;;0.42;89.83;98720.91;5096181;28;20028;-81
2021/01/23 09:27:09;;;;;;;38.65;19.08;;;;;;;0.33;90.17;98731.16;5095708;28;20048;-81
2021/01/23 09:29:34;;;;;;;36.72;19.15;;;;;;;0.42;90.42;98731.94;5095798;28;20016;-81
2021/01/23 09:32:01;;;;;;;36.60;21.23;;;;;;;0.58;89.93;98729.28;5096268;28;20412;-81
2021/01/23 09:34:27;;;;;;;38.47;21.20;;;;;;;0.61;89.75;98725.00;5097556;28;20084;-81
2021/01/23 09:36:52;;;;;;;44.97;22.67;;;;;;;0.62;89.65;98715.66;5096878;28;20035;-81
2021/01/23 09:39:17;;;;;;;45.15;21.25;;;;;;;0.72;89.60;98726.66;5095513;28;20534;-81
2021/01/23 09:41:42;;;;;;;38.38;20.90;;;;;;;0.85;88.81;98733.31;5097239;28;20032;-81
2021/01/23 09:44:08;;;;;;;39.05;20.80;;;;;;;0.79;89.07;98728.28;5096548;28;20062;-81
2021/01/23 09:46:33;;;;;;;41.83;20.42;;;;;;;0.86;88.74;98735.00;5096326;28;20035;-81
2021/01/23 09:48:58;;;;;;;37.95;20.63;;;;;;;0.81;89.28;98729.97;5095030;28;20488;-81
2021/01/23 09:51:24;;;;;;;35.00;21.50;;;;;;;0.87;88.92;98732.47;5096990;28;20081;-81
2021/01/23 09:53:49;;;;;;;40.42;20.38;;;;;;;0.82;89.71;98741.84;5096777;28;20103;-81
2021/01/23 09:56:14;;;;;;;35.30;20.52;;;;;;;0.85;89.19;98739.28;5095098;28;20059;-81
2021/01/23 09:58:40;;;;;;;32.00;19.42;;;;;;;0.88;88.91;98735.84;5096460;28;20028;-81
2021/01/23 10:01:05;;;;;;;41.85;20.48;;;;;;;0.86;89.44;98735.00;5096533;28;20028;-82
2021/01/23 10:03:30;;;;;;;38.65;21.85;;;;;;;0.91;88.62;98729.00;5098656;28;20066;-82
2021/01/23 10:05:55;;;;;;;34.85;19.80;;;;;;;0.87;89.59;98729.91;5097994;28;20024;-82
2021/01/23 10:08:21;;;;;;;38.53;19.70;;;;;;;0.89;89.07;98724.78;5097690;28;20031;-82
2021/01/23 10:10:46;;;;;;;32.33;20.17;;;;;;;1.00;88.23;98725.53;5095134;28;20055;-82
2021/01/23 10:13:11;;;;;;;38.63;19.10;;;;;;;1.00;88.53;98727.25;5094109;28;20028;-81
2021/01/23 10:15:36;;;;;;;35.15;18.27;;;;;;;1.06;87.49;98719.53;5092572;28;20043;-81
2021/01/23 10:18:05;;;;;;;36.30;18.48;;;;;;;1.09;87.50;98722.06;5095801;28;20024;-82
2021/01/23 10:20:31;;;;;;;36.78;19.88;;;;;;;1.17;87.62;98721.97;5095901;28;20099;-82
2021/01/23 10:22:56;;;;;;;39.03;20.92;;;;;;;1.34;87.63;98725.19;5095414;28;20034;-81
2021/01/23 10:25:21;;;;;;;40.42;20.95;;;;;;;1.38;86.99;98717.47;5096520;28;20028;-82
2021/01/23 10:27:47;;;;;;;37.53;20.05;;;;;;;1.56;85.83;98715.59;5095113;28;20020;-82
2021/01/23 10:30:13;;;;;;;41.30;20.95;;;;;;;1.73;85.70;98718.78;5094594;28;20031;-81
2021/01/23 10:32:39;;;;;;;24.45;12.55;;;;;;;1.44;85.54;98721.69;5093883;28;20111;-81
2021/01/23 10:35:05;;;;;;;36.65;19.77;;;;;;;1.55;86.36;98726.69;5096102;28;20496;-81
2021/01/23 10:37:31;;;;;;;27.60;14.38;;;;;;;1.48;85.98;98713.13;5094894;28;20035;-81
2021/01/23 10:39:56;;;;;;;27.90;16.60;;;;;;;1.73;85.42;98717.97;5097032;28;20031;-83
2021/01/23 10:42:22;;;;;;;34.97;18.40;;;;;;;1.77;85.22;98707.66;5096750;28;20031;-83
2021/01/23 10:44:47;;;;;;;32.22;17.77;;;;;;;1.88;84.34;98709.22;5095428;28;20024;-84
2021/01/23 10:47:13;;;;;;;34.65;18.90;;;;;;;1.81;84.71;98706.75;5095644;28;20062;-84
2021/01/23 10:49:38;;;;;;;34.05;17.98;;;;;;;1.77;84.90;98701.72;5095473;28;20043;-83
2021/01/23 10:52:04;;;;;;;31.95;18.10;;;;;;;2.01;83.96;98698.84;5095977;28;20115;-84
2021/01/23 10:54:29;;;;;;;30.00;17.30;;;;;;;2.10;84.02;98685.06;5095492;28;20027;-83
2021/01/23 10:56:55;;;;;;;35.63;19.88;;;;;;;2.01;84.03;98686.06;5096882;28;20020;-83
2021/01/23 10:59:20;;;;;;;29.40;17.00;;;;;;;2.22;83.61;98673.84;5095560;28;20028;-83
2021/01/23 11:01:47;;;;;;;35.47;18.23;;;;;;;2.24;83.04;98682.31;5097552;28;20031;-83
2021/01/23 11:04:12;;;;;;;29.95;17.48;;;;;;;2.44;82.19;98682.84;5095428;28;20031;-83
2021/01/23 11:06:37;;;;;;;23.27;15.23;;;;;;;2.47;81.87;98672.56;5095495;28;20458;-83
2021/01/23 11:09:03;;;;;;;29.20;16.35;;;;;;;2.46;81.57;98668.34;5095790;28;20020;-83
2021/01/23 11:11:30;;;;;;;33.35;17.52;;;;;;;2.83;80.28;98672.81;5096535;28;20024;-83
2021/01/23 11:13:56;;;;;;;27.80;16.08;;;;;;;2.95;79.68;98664.91;5097163;28;20048;-83
2021/01/23 11:16:21;;;;;;;25.23;15.77;;;;;;;2.88;79.16;98657.38;5096163;28;20028;-83
2021/01/23 11:18:46;;;;;;;31.67;17.35;;;;;;;2.99;79.21;98655.50;5098714;28;20020;-83
2021/01/23 11:21:11;;;;;;;26.30;14.98;;;;;;;2.95;79.17;98652.09;5096704;28;20031;-83
2021/01/23 11:23:37;;;;;;;24.42;12.73;;;;;;;2.84;78.13;98646.38;5097409;28;20112;-85
2021/01/23 11:26:02;;;;;;;24.05;13.57;;;;;;;3.35;76.73;98653.91;5096405;28;20020;-83